sensor_id;sensor_type;location;lat;lon;timestamp;P1;durP1;ratioP1;P2;durP2;ratioP2
57311;SDS011;43154;50.966;18.316;2023-03-02T00:01:42;69.10;;;25.10;;
57311;SDS011;43154;50.966;18.316;2023-03-02T00:04:13;74.50;;;26.50;;
57311;SDS011;43154;50.966;18.316;2023-03-02T00:06:51;61.10;;;22.50;;
57311;SDS011;43154;50.966;18.316;2023-03-02T00:09:20;45.60;;;18.70;;
57311;SDS011;43154;50.966;18.316;2023-03-02T00:11:47;44.00;;;17.00;;
57311;SDS011;43154;50.966;18.316;2023-03-02T00:14:13;41.80;;;16.50;;
57311;SDS011;43154;50.966;18.316;2023-03-02T00:16:43;38.80;;;15.10;;
57311;SDS011;43154;50.966;18.316;2023-03-02T00:19:09;39.60;;;15.20;;
57311;SDS011;43154;50.966;18.316;2023-03-02T00:21:35;41.10;;;14.60;;
57311;SDS011;43154;50.966;18.316;2023-03-02T00:24:01;39.30;;;15.20;;
57311;SDS011;43154;50.966;18.316;2023-03-02T00:26:31;39.60;;;14.80;;
57311;SDS011;43154;50.966;18.316;2023-03-02T00:28:59;38.50;;;13.90;;
57311;SDS011;43154;50.966;18.316;2023-03-02T00:31:26;37.80;;;13.80;;
57311;SDS011;43154;50.966;18.316;2023-03-02T00:33:53;38.70;;;13.90;;
57311;SDS011;43154;50.966;18.316;2023-03-02T00:36:19;37.20;;;13.90;;
57311;SDS011;43154;50.966;18.316;2023-03-02T00:38:47;37.80;;;13.30;;
57311;SDS011;43154;50.966;18.316;2023-03-02T00:41:14;40.00;;;14.40;;
57311;SDS011;43154;50.966;18.316;2023-03-02T00:43:41;37.10;;;13.80;;
57311;SDS011;43154;50.966;18.316;2023-03-02T00:46:21;39.00;;;14.00;;
57311;SDS011;43154;50.966;18.316;2023-03-02T00:48:50;37.30;;;13.40;;
57311;SDS011;43154;50.966;18.316;2023-03-02T00:51:17;39.50;;;14.60;;
57311;SDS011;43154;50.966;18.316;2023-03-02T00:53:43;39.90;;;15.10;;
57311;SDS011;43154;50.966;18.316;2023-03-02T00:56:09;42.60;;;16.20;;
57311;SDS011;43154;50.966;18.316;2023-03-02T00:58:36;45.70;;;17.20;;
57311;SDS011;43154;50.966;18.316;2023-03-02T01:01:06;44.20;;;16.60;;
57311;SDS011;43154;50.966;18.316;2023-03-02T01:03:36;46.20;;;17.50;;
57311;SDS011;43154;50.966;18.316;2023-03-02T01:06:02;51.10;;;18.20;;
57311;SDS011;43154;50.966;18.316;2023-03-02T01:08:30;51.30;;;17.90;;
57311;SDS011;43154;50.966;18.316;2023-03-02T01:10:57;44.70;;;16.50;;
57311;SDS011;43154;50.966;18.316;2023-03-02T01:13:28;45.20;;;17.00;;
57311;SDS011;43154;50.966;18.316;2023-03-02T01:16:00;46.10;;;16.50;;
57311;SDS011;43154;50.966;18.316;2023-03-02T01:18:28;45.00;;;16.10;;
57311;SDS011;43154;50.966;18.316;2023-03-02T01:21:01;44.80;;;15.60;;
57311;SDS011;43154;50.966;18.316;2023-03-02T01:23:32;44.30;;;15.70;;
57311;SDS011;43154;50.966;18.316;2023-03-02T01:25:58;50.40;;;17.80;;
57311;SDS011;43154;50.966;18.316;2023-03-02T01:28:24;57.30;;;20.20;;
57311;SDS011;43154;50.966;18.316;2023-03-02T01:30:51;57.90;;;19.10;;
57311;SDS011;43154;50.966;18.316;2023-03-02T01:33:16;57.20;;;20.60;;
57311;SDS011;43154;50.966;18.316;2023-03-02T01:35:45;55.60;;;20.90;;
57311;SDS011;43154;50.966;18.316;2023-03-02T01:38:12;63.20;;;23.20;;
57311;SDS011;43154;50.966;18.316;2023-03-02T01:40:38;61.30;;;22.30;;
57311;SDS011;43154;50.966;18.316;2023-03-02T01:43:08;63.20;;;22.90;;
57311;SDS011;43154;50.966;18.316;2023-03-02T01:45:48;63.70;;;23.10;;
57311;SDS011;43154;50.966;18.316;2023-03-02T01:48:26;68.50;;;25.60;;
57311;SDS011;43154;50.966;18.316;2023-03-02T01:51:04;66.50;;;25.10;;
57311;SDS011;43154;50.966;18.316;2023-03-02T01:53:35;72.30;;;27.10;;
57311;SDS011;43154;50.966;18.316;2023-03-02T01:56:02;84.10;;;28.70;;
57311;SDS011;43154;50.966;18.316;2023-03-02T01:58:31;73.70;;;27.20;;
57311;SDS011;43154;50.966;18.316;2023-03-02T02:01:00;75.30;;;27.80;;
57311;SDS011;43154;50.966;18.316;2023-03-02T02:03:26;69.10;;;26.80;;
57311;SDS011;43154;50.966;18.316;2023-03-02T02:08:47;66.60;;;24.50;;
57311;SDS011;43154;50.966;18.316;2023-03-02T02:11:15;62.20;;;23.20;;
57311;SDS011;43154;50.966;18.316;2023-03-02T02:13:41;66.70;;;24.20;;
57311;SDS011;43154;50.966;18.316;2023-03-02T02:16:08;65.10;;;23.30;;
57311;SDS011;43154;50.966;18.316;2023-03-02T02:18:35;63.70;;;23.90;;
57311;SDS011;43154;50.966;18.316;2023-03-02T02:21:03;67.30;;;23.00;;
57311;SDS011;43154;50.966;18.316;2023-03-02T02:31:56;59.60;;;22.30;;
57311;SDS011;43154;50.966;18.316;2023-03-02T02:34:34;62.20;;;22.20;;
57311;SDS011;43154;50.966;18.316;2023-03-02T02:37:25;58.80;;;22.00;;
57311;SDS011;43154;50.966;18.316;2023-03-02T02:39:57;64.60;;;23.10;;
57311;SDS011;43154;50.966;18.316;2023-03-02T02:42:31;66.90;;;23.60;;
57311;SDS011;43154;50.966;18.316;2023-03-02T02:45:01;65.30;;;24.00;;
57311;SDS011;43154;50.966;18.316;2023-03-02T02:53:37;64.00;;;25.10;;
57311;SDS011;43154;50.966;18.316;2023-03-02T02:56:15;81.50;;;29.80;;
57311;SDS011;43154;50.966;18.316;2023-03-02T02:58:43;88.30;;;30.70;;
57311;SDS011;43154;50.966;18.316;2023-03-02T03:01:16;86.10;;;30.80;;
57311;SDS011;43154;50.966;18.316;2023-03-02T03:03:48;85.60;;;32.20;;
57311;SDS011;43154;50.966;18.316;2023-03-02T03:06:21;86.40;;;31.00;;
57311;SDS011;43154;50.966;18.316;2023-03-02T03:08:52;76.60;;;28.80;;
57311;SDS011;43154;50.966;18.316;2023-03-02T03:11:21;70.00;;;26.10;;
57311;SDS011;43154;50.966;18.316;2023-03-02T03:13:52;69.20;;;25.40;;
57311;SDS011;43154;50.966;18.316;2023-03-02T03:16:20;69.00;;;25.80;;
57311;SDS011;43154;50.966;18.316;2023-03-02T03:18:47;72.90;;;26.20;;
57311;SDS011;43154;50.966;18.316;2023-03-02T03:21:14;66.00;;;26.30;;
57311;SDS011;43154;50.966;18.316;2023-03-02T03:23:46;70.80;;;26.80;;
57311;SDS011;43154;50.966;18.316;2023-03-02T03:26:12;75.10;;;28.40;;
57311;SDS011;43154;50.966;18.316;2023-03-02T03:28:37;71.90;;;26.60;;
57311;SDS011;43154;50.966;18.316;2023-03-02T03:31:04;71.40;;;26.60;;
57311;SDS011;43154;50.966;18.316;2023-03-02T03:33:30;73.50;;;25.80;;
57311;SDS011;43154;50.966;18.316;2023-03-02T03:35:57;71.50;;;26.40;;
57311;SDS011;43154;50.966;18.316;2023-03-02T03:38:26;72.90;;;26.00;;
57311;SDS011;43154;50.966;18.316;2023-03-02T03:40:54;71.90;;;25.50;;
57311;SDS011;43154;50.966;18.316;2023-03-02T03:43:19;69.70;;;25.70;;
57311;SDS011;43154;50.966;18.316;2023-03-02T03:45:46;73.20;;;26.60;;
57311;SDS011;43154;50.966;18.316;2023-03-02T03:48:12;71.90;;;25.70;;
57311;SDS011;43154;50.966;18.316;2023-03-02T03:50:37;73.50;;;26.50;;
57311;SDS011;43154;50.966;18.316;2023-03-02T03:53:03;76.30;;;27.40;;
57311;SDS011;43154;50.966;18.316;2023-03-02T03:55:30;70.70;;;26.10;;
57311;SDS011;43154;50.966;18.316;2023-03-02T03:57:55;73.40;;;28.10;;
57311;SDS011;43154;50.966;18.316;2023-03-02T04:00:21;77.00;;;27.60;;
57311;SDS011;43154;50.966;18.316;2023-03-02T04:02:49;76.80;;;27.50;;
57311;SDS011;43154;50.966;18.316;2023-03-02T04:05:17;79.40;;;28.60;;
57311;SDS011;43154;50.966;18.316;2023-03-02T04:07:43;76.60;;;29.00;;
57311;SDS011;43154;50.966;18.316;2023-03-02T04:10:09;82.60;;;30.20;;
57311;SDS011;43154;50.966;18.316;2023-03-02T04:12:40;87.00;;;30.30;;
57311;SDS011;43154;50.966;18.316;2023-03-02T04:15:07;84.10;;;29.40;;
57311;SDS011;43154;50.966;18.316;2023-03-02T04:17:34;82.60;;;29.60;;
57311;SDS011;43154;50.966;18.316;2023-03-02T04:20:00;80.50;;;28.10;;
57311;SDS011;43154;50.966;18.316;2023-03-02T04:22:28;76.10;;;27.30;;
57311;SDS011;43154;50.966;18.316;2023-03-02T04:24:55;73.40;;;26.80;;
57311;SDS011;43154;50.966;18.316;2023-03-02T04:27:21;72.40;;;26.00;;
57311;SDS011;43154;50.966;18.316;2023-03-02T04:29:46;70.30;;;26.30;;
57311;SDS011;43154;50.966;18.316;2023-03-02T04:32:13;72.90;;;25.80;;
57311;SDS011;43154;50.966;18.316;2023-03-02T04:34:41;70.30;;;27.30;;
57311;SDS011;43154;50.966;18.316;2023-03-02T04:37:07;75.80;;;27.70;;
57311;SDS011;43154;50.966;18.316;2023-03-02T04:39:33;77.90;;;28.00;;
57311;SDS011;43154;50.966;18.316;2023-03-02T04:41:59;73.40;;;27.20;;
57311;SDS011;43154;50.966;18.316;2023-03-02T04:44:27;81.50;;;29.80;;
57311;SDS011;43154;50.966;18.316;2023-03-02T04:46:53;86.00;;;31.90;;
57311;SDS011;43154;50.966;18.316;2023-03-02T04:49:19;79.20;;;30.10;;
57311;SDS011;43154;50.966;18.316;2023-03-02T04:51:47;87.20;;;30.90;;
57311;SDS011;43154;50.966;18.316;2023-03-02T04:54:22;85.60;;;32.00;;
57311;SDS011;43154;50.966;18.316;2023-03-02T04:56:51;82.70;;;30.40;;
57311;SDS011;43154;50.966;18.316;2023-03-02T04:59:20;86.80;;;30.40;;
57311;SDS011;43154;50.966;18.316;2023-03-02T05:01:50;79.20;;;29.10;;
57311;SDS011;43154;50.966;18.316;2023-03-02T05:04:18;81.00;;;29.20;;
57311;SDS011;43154;50.966;18.316;2023-03-02T05:06:43;118.90;;;40.80;;
57311;SDS011;43154;50.966;18.316;2023-03-02T05:09:11;117.20;;;38.00;;
57311;SDS011;43154;50.966;18.316;2023-03-02T05:11:40;99.50;;;34.70;;
57311;SDS011;43154;50.966;18.316;2023-03-02T05:14:07;83.80;;;31.60;;
57311;SDS011;43154;50.966;18.316;2023-03-02T05:16:35;79.10;;;29.80;;
57311;SDS011;43154;50.966;18.316;2023-03-02T05:19:05;81.20;;;30.50;;
57311;SDS011;43154;50.966;18.316;2023-03-02T05:21:34;78.00;;;27.80;;
57311;SDS011;43154;50.966;18.316;2023-03-02T05:27:27;78.30;;;27.90;;
57311;SDS011;43154;50.966;18.316;2023-03-02T05:29:53;70.60;;;26.80;;
57311;SDS011;43154;50.966;18.316;2023-03-02T05:32:19;71.30;;;26.70;;
57311;SDS011;43154;50.966;18.316;2023-03-02T05:34:46;70.20;;;27.50;;
57311;SDS011;43154;50.966;18.316;2023-03-02T05:37:12;75.40;;;27.90;;
57311;SDS011;43154;50.966;18.316;2023-03-02T05:39:39;70.60;;;27.60;;
57311;SDS011;43154;50.966;18.316;2023-03-02T05:42:05;76.20;;;28.40;;
57311;SDS011;43154;50.966;18.316;2023-03-02T05:44:31;67.10;;;27.20;;
57311;SDS011;43154;50.966;18.316;2023-03-02T05:46:56;74.90;;;26.90;;
57311;SDS011;43154;50.966;18.316;2023-03-02T05:49:23;67.40;;;25.70;;
57311;SDS011;43154;50.966;18.316;2023-03-02T05:51:49;74.50;;;27.80;;
57311;SDS011;43154;50.966;18.316;2023-03-02T05:54:16;71.80;;;27.00;;
57311;SDS011;43154;50.966;18.316;2023-03-02T05:56:42;79.80;;;27.40;;
57311;SDS011;43154;50.966;18.316;2023-03-02T05:59:09;63.50;;;26.10;;
57311;SDS011;43154;50.966;18.316;2023-03-02T06:01:36;77.20;;;27.60;;
57311;SDS011;43154;50.966;18.316;2023-03-02T06:04:03;73.30;;;26.70;;
57311;SDS011;43154;50.966;18.316;2023-03-02T06:06:31;67.90;;;25.60;;
57311;SDS011;43154;50.966;18.316;2023-03-02T06:08:57;71.80;;;26.10;;
57311;SDS011;43154;50.966;18.316;2023-03-02T06:11:24;75.50;;;27.30;;
57311;SDS011;43154;50.966;18.316;2023-03-02T06:13:50;79.00;;;28.20;;
57311;SDS011;43154;50.966;18.316;2023-03-02T06:16:15;77.60;;;27.80;;
57311;SDS011;43154;50.966;18.316;2023-03-02T06:18:42;78.20;;;28.40;;
57311;SDS011;43154;50.966;18.316;2023-03-02T06:21:08;72.80;;;27.10;;
57311;SDS011;43154;50.966;18.316;2023-03-02T06:23:35;73.90;;;26.40;;
57311;SDS011;43154;50.966;18.316;2023-03-02T06:26:06;69.30;;;26.10;;
57311;SDS011;43154;50.966;18.316;2023-03-02T06:31:01;97.40;;;28.20;;
57311;SDS011;43154;50.966;18.316;2023-03-02T06:33:27;89.50;;;27.70;;
57311;SDS011;43154;50.966;18.316;2023-03-02T06:35:53;77.50;;;28.90;;
57311;SDS011;43154;50.966;18.316;2023-03-02T06:38:19;72.90;;;27.70;;
57311;SDS011;43154;50.966;18.316;2023-03-02T06:40:45;83.90;;;29.20;;
57311;SDS011;43154;50.966;18.316;2023-03-02T06:43:11;86.50;;;33.70;;
57311;SDS011;43154;50.966;18.316;2023-03-02T06:45:37;76.20;;;30.00;;
57311;SDS011;43154;50.966;18.316;2023-03-02T06:48:04;76.30;;;28.00;;
57311;SDS011;43154;50.966;18.316;2023-03-02T06:50:32;80.90;;;29.90;;
57311;SDS011;43154;50.966;18.316;2023-03-02T06:52:59;83.60;;;30.70;;
57311;SDS011;43154;50.966;18.316;2023-03-02T06:55:25;77.70;;;28.50;;
57311;SDS011;43154;50.966;18.316;2023-03-02T06:57:52;84.20;;;32.20;;
57311;SDS011;43154;50.966;18.316;2023-03-02T07:00:19;94.50;;;34.80;;
57311;SDS011;43154;50.966;18.316;2023-03-02T07:02:51;86.00;;;32.20;;
57311;SDS011;43154;50.966;18.316;2023-03-02T07:05:19;77.10;;;29.30;;
57311;SDS011;43154;50.966;18.316;2023-03-02T07:07:46;72.80;;;28.20;;
57311;SDS011;43154;50.966;18.316;2023-03-02T07:10:13;81.50;;;30.00;;
57311;SDS011;43154;50.966;18.316;2023-03-02T07:12:39;79.50;;;30.40;;
57311;SDS011;43154;50.966;18.316;2023-03-02T07:15:09;96.10;;;35.40;;
57311;SDS011;43154;50.966;18.316;2023-03-02T07:17:39;95.70;;;37.80;;
57311;SDS011;43154;50.966;18.316;2023-03-02T07:20:07;306.40;;;100.10;;
57311;SDS011;43154;50.966;18.316;2023-03-02T07:22:36;193.30;;;68.70;;
57311;SDS011;43154;50.966;18.316;2023-03-02T07:25:03;175.90;;;66.30;;
57311;SDS011;43154;50.966;18.316;2023-03-02T07:27:29;174.00;;;62.60;;
57311;SDS011;43154;50.966;18.316;2023-03-02T07:29:56;131.00;;;49.90;;
57311;SDS011;43154;50.966;18.316;2023-03-02T07:32:22;115.10;;;49.30;;
57311;SDS011;43154;50.966;18.316;2023-03-02T07:34:48;113.00;;;44.10;;
57311;SDS011;43154;50.966;18.316;2023-03-02T07:37:14;117.00;;;47.00;;
57311;SDS011;43154;50.966;18.316;2023-03-02T07:39:40;128.70;;;52.40;;
57311;SDS011;43154;50.966;18.316;2023-03-02T07:42:06;103.80;;;42.00;;
57311;SDS011;43154;50.966;18.316;2023-03-02T07:44:33;87.80;;;36.90;;
57311;SDS011;43154;50.966;18.316;2023-03-02T07:46:59;89.80;;;37.30;;
57311;SDS011;43154;50.966;18.316;2023-03-02T07:49:25;85.80;;;37.10;;
57311;SDS011;43154;50.966;18.316;2023-03-02T07:51:51;87.10;;;36.20;;
57311;SDS011;43154;50.966;18.316;2023-03-02T07:54:17;86.80;;;36.70;;
57311;SDS011;43154;50.966;18.316;2023-03-02T07:56:43;85.50;;;36.70;;
57311;SDS011;43154;50.966;18.316;2023-03-02T07:59:10;79.70;;;33.00;;
57311;SDS011;43154;50.966;18.316;2023-03-02T08:01:40;72.30;;;30.60;;
57311;SDS011;43154;50.966;18.316;2023-03-02T08:04:05;79.70;;;31.90;;
57311;SDS011;43154;50.966;18.316;2023-03-02T08:06:31;73.90;;;31.70;;
57311;SDS011;43154;50.966;18.316;2023-03-02T08:08:57;76.70;;;32.40;;
57311;SDS011;43154;50.966;18.316;2023-03-02T08:11:25;74.50;;;32.00;;
57311;SDS011;43154;50.966;18.316;2023-03-02T08:13:51;77.90;;;32.50;;
57311;SDS011;43154;50.966;18.316;2023-03-02T08:16:17;73.00;;;32.00;;
57311;SDS011;43154;50.966;18.316;2023-03-02T08:18:45;76.50;;;33.00;;
57311;SDS011;43154;50.966;18.316;2023-03-02T08:21:16;84.70;;;34.80;;
57311;SDS011;43154;50.966;18.316;2023-03-02T08:23:44;82.80;;;35.40;;
57311;SDS011;43154;50.966;18.316;2023-03-02T08:26:13;88.80;;;37.00;;
57311;SDS011;43154;50.966;18.316;2023-03-02T08:28:39;86.80;;;37.30;;
57311;SDS011;43154;50.966;18.316;2023-03-02T08:31:06;84.40;;;36.60;;
57311;SDS011;43154;50.966;18.316;2023-03-02T08:33:33;85.10;;;37.10;;
57311;SDS011;43154;50.966;18.316;2023-03-02T08:36:07;82.80;;;34.70;;
57311;SDS011;43154;50.966;18.316;2023-03-02T08:38:36;68.10;;;30.60;;
57311;SDS011;43154;50.966;18.316;2023-03-02T09:15:03;58.60;;;29.10;;
57311;SDS011;43154;50.966;18.316;2023-03-02T09:17:32;58.40;;;28.10;;
57311;SDS011;43154;50.966;18.316;2023-03-02T09:19:58;56.70;;;28.20;;
57311;SDS011;43154;50.966;18.316;2023-03-02T09:22:27;66.10;;;29.40;;
57311;SDS011;43154;50.966;18.316;2023-03-02T09:24:56;60.10;;;28.60;;
57311;SDS011;43154;50.966;18.316;2023-03-02T09:27:32;61.00;;;27.20;;
57311;SDS011;43154;50.966;18.316;2023-03-02T09:30:00;55.80;;;26.40;;
57311;SDS011;43154;50.966;18.316;2023-03-02T09:32:26;57.20;;;25.60;;
57311;SDS011;43154;50.966;18.316;2023-03-02T09:34:55;50.10;;;23.90;;
57311;SDS011;43154;50.966;18.316;2023-03-02T09:37:26;51.00;;;23.90;;
57311;SDS011;43154;50.966;18.316;2023-03-02T09:39:55;47.10;;;24.40;;
57311;SDS011;43154;50.966;18.316;2023-03-02T09:45:29;48.90;;;24.80;;
57311;SDS011;43154;50.966;18.316;2023-03-02T09:50:52;46.50;;;21.60;;
57311;SDS011;43154;50.966;18.316;2023-03-02T09:56:07;44.70;;;20.40;;
57311;SDS011;43154;50.966;18.316;2023-03-02T10:01:51;41.50;;;19.40;;
57311;SDS011;43154;50.966;18.316;2023-03-02T10:04:27;40.60;;;18.90;;
57311;SDS011;43154;50.966;18.316;2023-03-02T10:07:18;44.90;;;20.80;;
57311;SDS011;43154;50.966;18.316;2023-03-02T10:09:52;41.70;;;19.30;;
57311;SDS011;43154;50.966;18.316;2023-03-02T10:12:34;38.20;;;18.90;;
57311;SDS011;43154;50.966;18.316;2023-03-02T10:15:11;38.40;;;19.20;;
57311;SDS011;43154;50.966;18.316;2023-03-02T10:18:00;40.30;;;19.40;;
57311;SDS011;43154;50.966;18.316;2023-03-02T10:20:37;43.60;;;19.70;;
57311;SDS011;43154;50.966;18.316;2023-03-02T10:23:22;41.20;;;19.20;;
57311;SDS011;43154;50.966;18.316;2023-03-02T10:26:20;39.00;;;18.80;;
57311;SDS011;43154;50.966;18.316;2023-03-02T10:31:43;39.90;;;19.50;;
57311;SDS011;43154;50.966;18.316;2023-03-02T10:34:26;40.30;;;19.60;;
57311;SDS011;43154;50.966;18.316;2023-03-02T10:36:57;36.70;;;18.20;;
57311;SDS011;43154;50.966;18.316;2023-03-02T10:39:30;66.60;;;41.20;;
57311;SDS011;43154;50.966;18.316;2023-03-02T10:42:02;34.50;;;18.30;;
57311;SDS011;43154;50.966;18.316;2023-03-02T10:44:38;33.90;;;16.80;;
57311;SDS011;43154;50.966;18.316;2023-03-02T10:47:17;37.30;;;17.50;;
57311;SDS011;43154;50.966;18.316;2023-03-02T10:49:51;30.20;;;14.70;;
57311;SDS011;43154;50.966;18.316;2023-03-02T10:52:21;40.80;;;18.90;;
57311;SDS011;43154;50.966;18.316;2023-03-02T10:55:05;39.80;;;17.30;;
57311;SDS011;43154;50.966;18.316;2023-03-02T10:57:39;29.60;;;14.90;;
57311;SDS011;43154;50.966;18.316;2023-03-02T11:02:52;44.90;;;21.10;;
57311;SDS011;43154;50.966;18.316;2023-03-02T11:05:28;34.10;;;16.20;;
57311;SDS011;43154;50.966;18.316;2023-03-02T11:08:04;32.70;;;15.60;;
57311;SDS011;43154;50.966;18.316;2023-03-02T11:10:37;35.50;;;17.10;;
57311;SDS011;43154;50.966;18.316;2023-03-02T11:13:34;32.50;;;16.10;;
57311;SDS011;43154;50.966;18.316;2023-03-02T11:22:16;30.20;;;14.40;;
57311;SDS011;43154;50.966;18.316;2023-03-02T11:24:57;30.40;;;15.50;;
57311;SDS011;43154;50.966;18.316;2023-03-02T11:27:28;32.10;;;16.60;;
57311;SDS011;43154;50.966;18.316;2023-03-02T11:30:03;34.10;;;17.30;;
57311;SDS011;43154;50.966;18.316;2023-03-02T11:33:14;31.50;;;14.80;;
57311;SDS011;43154;50.966;18.316;2023-03-02T11:35:58;31.10;;;15.80;;
57311;SDS011;43154;50.966;18.316;2023-03-02T11:38:31;48.00;;;18.60;;
57311;SDS011;43154;50.966;18.316;2023-03-02T11:41:27;36.80;;;19.00;;
57311;SDS011;43154;50.966;18.316;2023-03-02T11:43:57;37.50;;;18.30;;
57311;SDS011;43154;50.966;18.316;2023-03-02T11:46:26;36.50;;;18.50;;
57311;SDS011;43154;50.966;18.316;2023-03-02T11:49:11;36.50;;;19.00;;
57311;SDS011;43154;50.966;18.316;2023-03-02T11:51:41;38.30;;;19.10;;
57311;SDS011;43154;50.966;18.316;2023-03-02T11:54:23;42.80;;;20.90;;
57311;SDS011;43154;50.966;18.316;2023-03-02T11:56:55;34.60;;;17.10;;
57311;SDS011;43154;50.966;18.316;2023-03-02T11:59:21;34.90;;;17.20;;
57311;SDS011;43154;50.966;18.316;2023-03-02T12:01:51;33.20;;;16.80;;
57311;SDS011;43154;50.966;18.316;2023-03-02T12:04:26;32.40;;;16.30;;
57311;SDS011;43154;50.966;18.316;2023-03-02T12:06:54;32.90;;;17.40;;
57311;SDS011;43154;50.966;18.316;2023-03-02T12:09:29;36.90;;;19.80;;
57311;SDS011;43154;50.966;18.316;2023-03-02T12:15:22;28.00;;;14.40;;
57311;SDS011;43154;50.966;18.316;2023-03-02T12:21:20;28.60;;;15.10;;
57311;SDS011;43154;50.966;18.316;2023-03-02T12:26:24;51.80;;;24.40;;
57311;SDS011;43154;50.966;18.316;2023-03-02T12:37:05;33.10;;;13.40;;
57311;SDS011;43154;50.966;18.316;2023-03-02T12:43:15;26.70;;;12.80;;
57311;SDS011;43154;50.966;18.316;2023-03-02T12:45:48;26.60;;;12.40;;
57311;SDS011;43154;50.966;18.316;2023-03-02T12:49:02;23.30;;;11.60;;
57311;SDS011;43154;50.966;18.316;2023-03-02T12:54:27;32.90;;;14.80;;
57311;SDS011;43154;50.966;18.316;2023-03-02T12:57:05;29.10;;;14.20;;
57311;SDS011;43154;50.966;18.316;2023-03-02T12:59:49;28.40;;;14.60;;
57311;SDS011;43154;50.966;18.316;2023-03-02T13:05:16;27.20;;;14.00;;
57311;SDS011;43154;50.966;18.316;2023-03-02T13:10:39;30.10;;;15.70;;
57311;SDS011;43154;50.966;18.316;2023-03-02T13:13:26;31.50;;;16.10;;
57311;SDS011;43154;50.966;18.316;2023-03-02T13:16:00;31.40;;;15.10;;
57311;SDS011;43154;50.966;18.316;2023-03-02T13:18:34;34.00;;;16.80;;
57311;SDS011;43154;50.966;18.316;2023-03-02T13:21:04;32.80;;;16.10;;
57311;SDS011;43154;50.966;18.316;2023-03-02T13:23:34;30.40;;;16.00;;
57311;SDS011;43154;50.966;18.316;2023-03-02T13:26:03;35.20;;;16.50;;
57311;SDS011;43154;50.966;18.316;2023-03-02T13:28:35;30.50;;;16.30;;
57311;SDS011;43154;50.966;18.316;2023-03-02T13:31:19;32.20;;;17.40;;
57311;SDS011;43154;50.966;18.316;2023-03-02T13:33:52;35.00;;;17.50;;
57311;SDS011;43154;50.966;18.316;2023-03-02T13:36:24;30.70;;;15.70;;
57311;SDS011;43154;50.966;18.316;2023-03-02T13:38:57;33.50;;;17.10;;
57311;SDS011;43154;50.966;18.316;2023-03-02T13:41:27;38.60;;;19.60;;
57311;SDS011;43154;50.966;18.316;2023-03-02T13:43:58;37.00;;;19.30;;
57311;SDS011;43154;50.966;18.316;2023-03-02T13:46:39;39.70;;;21.70;;
57311;SDS011;43154;50.966;18.316;2023-03-02T13:49:06;41.30;;;21.10;;
57311;SDS011;43154;50.966;18.316;2023-03-02T13:51:44;39.90;;;21.60;;
57311;SDS011;43154;50.966;18.316;2023-03-02T13:54:24;41.70;;;21.40;;
57311;SDS011;43154;50.966;18.316;2023-03-02T13:56:56;43.80;;;21.90;;
57311;SDS011;43154;50.966;18.316;2023-03-02T13:59:26;38.80;;;19.90;;
57311;SDS011;43154;50.966;18.316;2023-03-02T14:01:54;37.80;;;19.70;;
57311;SDS011;43154;50.966;18.316;2023-03-02T14:04:26;39.40;;;20.90;;
57311;SDS011;43154;50.966;18.316;2023-03-02T14:06:55;37.80;;;21.20;;
57311;SDS011;43154;50.966;18.316;2023-03-02T14:09:23;37.70;;;19.20;;
57311;SDS011;43154;50.966;18.316;2023-03-02T14:11:54;38.30;;;19.90;;
57311;SDS011;43154;50.966;18.316;2023-03-02T14:14:24;38.10;;;19.80;;
57311;SDS011;43154;50.966;18.316;2023-03-02T14:16:57;35.90;;;19.00;;
57311;SDS011;43154;50.966;18.316;2023-03-02T14:19:23;40.00;;;21.00;;
57311;SDS011;43154;50.966;18.316;2023-03-02T14:22:02;38.10;;;20.60;;
57311;SDS011;43154;50.966;18.316;2023-03-02T14:24:31;41.20;;;21.80;;
57311;SDS011;43154;50.966;18.316;2023-03-02T14:27:02;40.40;;;21.10;;
57311;SDS011;43154;50.966;18.316;2023-03-02T14:29:31;38.80;;;20.80;;
57311;SDS011;43154;50.966;18.316;2023-03-02T14:32:05;39.50;;;21.10;;
57311;SDS011;43154;50.966;18.316;2023-03-02T14:34:33;41.20;;;21.80;;
57311;SDS011;43154;50.966;18.316;2023-03-02T14:37:04;45.30;;;23.70;;
57311;SDS011;43154;50.966;18.316;2023-03-02T14:39:34;75.70;;;27.60;;
57311;SDS011;43154;50.966;18.316;2023-03-02T14:42:03;46.70;;;22.20;;
57311;SDS011;43154;50.966;18.316;2023-03-02T14:44:33;55.00;;;24.90;;
57311;SDS011;43154;50.966;18.316;2023-03-02T14:47:02;48.80;;;23.70;;
57311;SDS011;43154;50.966;18.316;2023-03-02T14:49:33;46.20;;;23.00;;
57311;SDS011;43154;50.966;18.316;2023-03-02T14:52:07;53.90;;;24.10;;
57311;SDS011;43154;50.966;18.316;2023-03-02T14:54:42;40.20;;;22.20;;
57311;SDS011;43154;50.966;18.316;2023-03-02T14:57:18;50.70;;;23.90;;
57311;SDS011;43154;50.966;18.316;2023-03-02T15:02:20;54.00;;;22.90;;
57311;SDS011;43154;50.966;18.316;2023-03-02T15:04:49;47.20;;;23.10;;
57311;SDS011;43154;50.966;18.316;2023-03-02T15:07:21;42.10;;;20.60;;
57311;SDS011;43154;50.966;18.316;2023-03-02T15:09:50;40.40;;;20.20;;
57311;SDS011;43154;50.966;18.316;2023-03-02T15:12:15;40.00;;;19.90;;
57311;SDS011;43154;50.966;18.316;2023-03-02T15:14:45;40.80;;;20.10;;
57311;SDS011;43154;50.966;18.316;2023-03-02T15:17:16;39.30;;;19.80;;
57311;SDS011;43154;50.966;18.316;2023-03-02T15:19:43;38.10;;;19.10;;
57311;SDS011;43154;50.966;18.316;2023-03-02T15:22:11;41.70;;;19.90;;
57311;SDS011;43154;50.966;18.316;2023-03-02T15:27:17;40.50;;;19.10;;
57311;SDS011;43154;50.966;18.316;2023-03-02T15:29:51;39.90;;;18.90;;
57311;SDS011;43154;50.966;18.316;2023-03-02T15:32:17;41.80;;;19.00;;
57311;SDS011;43154;50.966;18.316;2023-03-02T15:34:46;42.60;;;20.40;;
57311;SDS011;43154;50.966;18.316;2023-03-02T15:37:21;39.30;;;19.30;;
57311;SDS011;43154;50.966;18.316;2023-03-02T15:39:53;39.70;;;20.10;;
57311;SDS011;43154;50.966;18.316;2023-03-02T15:42:20;41.30;;;19.90;;
57311;SDS011;43154;50.966;18.316;2023-03-02T15:44:49;44.30;;;21.50;;
57311;SDS011;43154;50.966;18.316;2023-03-02T15:47:23;41.40;;;20.60;;
57311;SDS011;43154;50.966;18.316;2023-03-02T15:49:49;42.60;;;20.50;;
57311;SDS011;43154;50.966;18.316;2023-03-02T15:52:15;50.90;;;21.40;;
57311;SDS011;43154;50.966;18.316;2023-03-02T15:54:41;44.60;;;21.40;;
57311;SDS011;43154;50.966;18.316;2023-03-02T15:57:10;44.50;;;21.80;;
57311;SDS011;43154;50.966;18.316;2023-03-02T15:59:42;50.80;;;22.40;;
57311;SDS011;43154;50.966;18.316;2023-03-02T16:02:09;42.90;;;21.10;;
57311;SDS011;43154;50.966;18.316;2023-03-02T16:04:35;41.50;;;20.60;;
57311;SDS011;43154;50.966;18.316;2023-03-02T16:07:05;44.30;;;22.20;;
57311;SDS011;43154;50.966;18.316;2023-03-02T16:09:31;45.90;;;24.60;;
57311;SDS011;43154;50.966;18.316;2023-03-02T16:11:59;54.10;;;28.00;;
57311;SDS011;43154;50.966;18.316;2023-03-02T16:14:28;68.90;;;35.20;;
57311;SDS011;43154;50.966;18.316;2023-03-02T16:16:54;61.90;;;30.60;;
57311;SDS011;43154;50.966;18.316;2023-03-02T16:19:20;59.20;;;27.40;;
57311;SDS011;43154;50.966;18.316;2023-03-02T16:21:46;51.80;;;24.20;;